Time;durP1;ratioP1;P1;durP2;ratioP2;P2;SDS_P1;SDS_P2;PMS_P1;PMS_P2;Temp;Humidity;BMP_temperature;BMP_pressure;BME280_temperature;BME280_humidity;BME280_pressure;Samples;Min_cycle;Max_cycle;Signal;HPM_P1;HPM_P2
2021/07/28 00:02:05;;;;;;;10.63;6.27;;;17.00;99.90;;;;;;5008621;28;20695;-89
2021/07/28 00:04:34;;;;;;;9.80;5.97;;;17.10;99.90;;;;;;4993927;28;20191;-88
2021/07/28 00:07:00;;;;;;;11.97;6.87;;;17.10;99.90;;;;;;4977258;28;20226;-89
2021/07/28 00:09:26;;;;;;;7.00;4.80;;;17.00;99.90;;;;;;5009586;28;20221;-89
2021/07/28 00:11:52;;;;;;;10.33;6.37;;;17.00;99.90;;;;;;5008399;28;20310;-89
2021/07/28 00:14:18;;;;;;;11.23;4.93;;;17.00;99.90;;;;;;4977641;28;20219;-88
2021/07/28 00:16:44;;;;;;;9.20;5.73;;;17.00;99.90;;;;;;4977198;28;20198;-88
2021/07/28 00:19:19;;;;;;;10.77;5.33;;;17.00;99.90;;;;;;4976820;28;20282;-89
2021/07/28 00:24:32;;;;;;;9.67;5.27;;;17.00;99.90;;;;;;5008940;28;20215;-90
2021/07/28 00:27:01;;;;;;;9.30;6.33;;;17.00;99.90;;;;;;5008928;28;20243;-90
2021/07/28 00:29:30;;;;;;;11.70;5.60;;;17.00;99.90;;;;;;5008375;28;20223;-89
2021/07/28 00:31:57;;;;;;;13.50;6.63;;;17.00;99.90;;;;;;5009180;28;20219;-89
2021/07/28 00:34:23;;;;;;;12.47;7.67;;;16.90;99.90;;;;;;5009576;28;20605;-90
2021/07/28 00:36:50;;;;;;;15.67;5.83;;;16.90;99.90;;;;;;5008390;28;20219;-89
2021/07/28 00:39:16;;;;;;;11.57;6.80;;;16.90;99.90;;;;;;4991968;28;20227;-89
2021/07/28 00:41:43;;;;;;;13.27;7.50;;;16.80;99.90;;;;;;4992553;28;20230;-90
2021/07/28 00:44:08;;;;;;;9.90;6.27;;;16.80;99.90;;;;;;5008078;28;20873;-89
2021/07/28 00:46:34;;;;;;;13.67;6.03;;;16.90;99.90;;;;;;5008662;28;20282;-89
2021/07/28 00:49:00;;;;;;;9.97;6.23;;;16.80;99.90;;;;;;5009175;28;20214;-89
2021/07/28 00:51:26;;;;;;;10.17;6.33;;;16.80;99.90;;;;;;4973177;28;20706;-89
2021/07/28 00:53:52;;;;;;;12.13;5.60;;;16.80;99.90;;;;;;4963003;28;20212;-89
2021/07/28 00:56:21;;;;;;;13.43;7.17;;;16.80;99.90;;;;;;4950953;28;20242;-88
2021/07/28 00:58:47;;;;;;;9.77;5.60;;;16.70;99.90;;;;;;4979077;28;20176;-88
2021/07/28 01:01:15;;;;;;;10.83;6.63;;;16.70;99.90;;;;;;4979602;28;20188;-89
2021/07/28 01:03:42;;;;;;;11.03;5.60;;;16.70;99.90;;;;;;4988812;28;20715;-88
2021/07/28 01:06:11;;;;;;;10.47;5.47;;;16.60;99.90;;;;;;4967293;28;20223;-89
2021/07/28 01:08:36;;;;;;;10.23;5.60;;;16.70;99.90;;;;;;4967852;28;21202;-90
2021/07/28 01:11:04;;;;;;;19.03;6.77;;;16.70;99.90;;;;;;4963086;28;20314;-90
2021/07/28 01:13:32;;;;;;;13.50;6.80;;;16.70;99.90;;;;;;4989344;28;20224;-90
2021/07/28 01:16:09;;;;;;;17.83;6.23;;;16.70;99.90;;;;;;5004262;28;20878;-89
2021/07/28 01:18:35;;;;;;;10.93;6.37;;;16.70;99.90;;;;;;4988752;28;20259;-90
2021/07/28 01:21:03;;;;;;;11.93;6.83;;;16.70;99.90;;;;;;4963593;28;20223;-89
2021/07/28 01:23:30;;;;;;;12.83;6.37;;;16.70;99.90;;;;;;4982252;28;20220;-90
2021/07/28 01:26:00;;;;;;;13.93;7.93;;;16.70;99.90;;;;;;4972767;28;20212;-89
2021/07/28 01:28:27;;;;;;;11.43;6.77;;;16.70;99.90;;;;;;4965380;28;20236;-89
2021/07/28 01:31:05;;;;;;;14.03;7.47;;;16.80;99.90;;;;;;4979681;28;20278;-89
2021/07/28 01:33:36;;;;;;;16.23;8.23;;;16.70;99.90;;;;;;4987702;28;20624;-89
2021/07/28 01:36:04;;;;;;;14.07;7.47;;;16.70;99.90;;;;;;4964256;28;20222;-90
2021/07/28 01:38:31;;;;;;;12.80;7.37;;;16.80;99.90;;;;;;4988067;28;20226;-89
2021/07/28 01:40:59;;;;;;;14.60;7.40;;;16.80;99.90;;;;;;4964733;28;20794;-92
2021/07/28 01:43:27;;;;;;;14.77;8.23;;;16.80;99.90;;;;;;4989123;28;20559;-89
2021/07/28 01:45:53;;;;;;;13.33;6.30;;;16.80;99.90;;;;;;4987887;28;20317;-89
2021/07/28 01:48:19;;;;;;;12.87;7.80;;;16.80;99.90;;;;;;4982127;28;20216;-89
2021/07/28 01:50:46;;;;;;;15.37;7.77;;;16.90;99.90;;;;;;4982627;28;20764;-90
2021/07/28 01:53:13;;;;;;;19.40;9.40;;;16.90;99.90;;;;;;4987690;28;20248;-89
2021/07/28 01:55:39;;;;;;;15.17;8.27;;;16.90;99.90;;;;;;4963995;28;20231;-89
2021/07/28 01:58:04;;;;;;;22.73;9.93;;;16.80;99.90;;;;;;4961794;28;20258;-90
2021/07/28 02:00:30;;;;;;;20.00;8.90;;;16.90;99.90;;;;;;4965414;28;20699;-89
2021/07/28 02:03:05;;;;;;;15.20;8.80;;;16.90;99.90;;;;;;4987097;28;20219;-89
2021/07/28 02:05:36;;;;;;;16.90;9.93;;;16.90;99.90;;;;;;4987447;28;20243;-90
2021/07/28 02:08:07;;;;;;;18.20;10.13;;;16.90;99.90;;;;;;4964358;28;20242;-90
2021/07/28 02:10:35;;;;;;;22.50;9.03;;;16.90;99.90;;;;;;4971740;28;20188;-90
2021/07/28 02:13:01;;;;;;;14.37;8.27;;;16.90;99.90;;;;;;4991125;28;20235;-89
2021/07/28 02:15:28;;;;;;;16.03;8.47;;;16.80;99.90;;;;;;5006435;28;20807;-91
2021/07/28 02:17:55;;;;;;;17.60;8.50;;;16.80;99.90;;;;;;4974573;28;20303;-90
2021/07/28 02:20:21;;;;;;;19.47;9.80;;;16.80;99.90;;;;;;4991364;28;20218;-89
2021/07/28 02:22:48;;;;;;;19.70;9.23;;;16.90;99.90;;;;;;5006782;28;20294;-88
2021/07/28 02:25:14;;;;;;;13.53;7.70;;;16.90;99.90;;;;;;4991473;28;20193;-88
2021/07/28 02:27:40;;;;;;;16.70;9.27;;;16.90;99.90;;;;;;4981046;28;20276;-89
2021/07/28 02:30:08;;;;;;;11.90;6.90;;;16.90;99.90;;;;;;5006434;28;20207;-88
2021/07/28 02:32:34;;;;;;;14.17;7.83;;;16.90;99.90;;;;;;5007033;28;20235;-89
2021/07/28 02:35:00;;;;;;;18.70;10.37;;;16.80;99.90;;;;;;4974601;28;20211;-91
2021/07/28 02:37:26;;;;;;;19.67;8.77;;;16.90;99.90;;;;;;5007051;28;20183;-92
2021/07/28 02:39:52;;;;;;;18.53;10.67;;;16.80;99.90;;;;;;5009912;28;20238;-91
2021/07/28 02:42:18;;;;;;;17.83;11.50;;;16.90;99.90;;;;;;4995187;28;20215;-91
2021/07/28 02:44:44;;;;;;;21.83;9.73;;;16.90;99.90;;;;;;4977802;28;20279;-89
2021/07/28 02:47:10;;;;;;;19.00;10.77;;;17.00;99.90;;;;;;5008374;28;20699;-90
2021/07/28 02:49:37;;;;;;;26.97;10.97;;;17.10;99.90;;;;;;4992829;28;20229;-90
2021/07/28 02:52:03;;;;;;;27.03;11.80;;;17.10;99.90;;;;;;4993730;28;20196;-90
2021/07/28 02:54:29;;;;;;;19.67;10.97;;;17.10;99.90;;;;;;4982108;28;20634;-92
2021/07/28 02:56:56;;;;;;;21.57;10.47;;;17.10;99.90;;;;;;4973931;28;20359;-90
2021/07/28 02:59:21;;;;;;;18.73;11.20;;;17.00;99.90;;;;;;4974136;28;20219;-89
2021/07/28 03:01:49;;;;;;;17.40;9.23;;;17.10;99.90;;;;;;4975826;28;20195;-90
2021/07/28 03:04:15;;;;;;;25.13;10.90;;;17.00;99.90;;;;;;4975410;28;21158;-90
2021/07/28 03:06:41;;;;;;;22.47;10.67;;;17.00;99.90;;;;;;4973805;28;20216;-90
2021/07/28 03:09:06;;;;;;;21.23;10.43;;;17.00;99.90;;;;;;4974574;28;20208;-90
2021/07/28 03:11:32;;;;;;;19.70;10.63;;;17.00;99.90;;;;;;4974891;28;20267;-90
2021/07/28 03:13:58;;;;;;;20.83;11.37;;;17.00;99.90;;;;;;4983639;28;20219;-90
2021/07/28 03:16:24;;;;;;;20.07;11.10;;;17.00;99.90;;;;;;4976997;28;20195;-91
2021/07/28 03:18:50;;;;;;;21.00;11.13;;;17.00;99.90;;;;;;4994548;28;20256;-90
2021/07/28 03:21:15;;;;;;;20.93;11.77;;;17.10;99.90;;;;;;4987259;28;20250;-90
2021/07/28 03:23:41;;;;;;;19.73;10.37;;;17.10;99.90;;;;;;4977177;28;20274;-90
2021/07/28 03:26:07;;;;;;;23.87;11.93;;;17.10;99.90;;;;;;4976207;28;20281;-91
2021/07/28 03:28:33;;;;;;;24.70;11.33;;;17.10;99.90;;;;;;4986066;28;20298;-90
2021/07/28 03:30:59;;;;;;;24.63;12.17;;;17.10;99.90;;;;;;4992860;28;20219;-90
2021/07/28 03:33:25;;;;;;;21.50;10.70;;;17.20;99.90;;;;;;4975333;28;20219;-92
2021/07/28 03:35:51;;;;;;;23.10;12.03;;;17.20;99.90;;;;;;4983470;28;20223;-90
2021/07/28 03:38:17;;;;;;;23.40;10.47;;;17.20;99.90;;;;;;4982652;28;20230;-90
2021/07/28 03:40:42;;;;;;;18.73;8.67;;;17.10;99.90;;;;;;4975263;28;20196;-90
2021/07/28 03:43:09;;;;;;;23.53;10.67;;;17.20;99.90;;;;;;4968738;28;20308;-89
2021/07/28 03:45:34;;;;;;;21.97;11.53;;;17.10;99.90;;;;;;4985232;28;20688;-90
2021/07/28 03:48:00;;;;;;;20.10;11.37;;;17.10;99.90;;;;;;4991772;28;20227;-90
2021/07/28 03:50:26;;;;;;;27.93;11.13;;;17.20;99.90;;;;;;4991121;28;20274;-91
2021/07/28 03:52:52;;;;;;;23.30;12.30;;;17.10;99.90;;;;;;4975773;28;20215;-90
2021/07/28 03:55:18;;;;;;;24.37;10.20;;;17.10;99.90;;;;;;4976474;28;20244;-90
2021/07/28 03:57:43;;;;;;;17.93;9.13;;;17.00;99.90;;;;;;4974882;28;20221;-91
2021/07/28 04:00:10;;;;;;;19.63;10.50;;;17.00;99.90;;;;;;4967198;28;20212;-91
2021/07/28 04:02:35;;;;;;;20.27;10.93;;;16.90;99.90;;;;;;4991791;28;20204;-91
2021/07/28 04:05:03;;;;;;;21.90;11.40;;;16.90;99.90;;;;;;4975370;28;20223;-90
2021/07/28 04:07:28;;;;;;;19.70;11.10;;;16.90;99.90;;;;;;4991388;28;20215;-90
2021/07/28 04:09:54;;;;;;;21.73;10.77;;;16.90;99.90;;;;;;4983961;28;20384;-90
2021/07/28 04:12:20;;;;;;;22.97;9.57;;;17.00;99.90;;;;;;4991020;28;20239;-90
2021/07/28 04:14:46;;;;;;;25.10;10.90;;;16.90;99.90;;;;;;4989857;28;20245;-92
2021/07/28 04:17:13;;;;;;;20.93;9.57;;;16.90;99.90;;;;;;4974920;28;20220;-91
2021/07/28 04:19:43;;;;;;;21.57;11.23;;;16.90;99.90;;;;;;4965430;28;20192;-91
2021/07/28 04:22:09;;;;;;;18.43;9.23;;;16.90;99.90;;;;;;4990469;28;20219;-91
2021/07/28 04:24:35;;;;;;;16.23;8.43;;;16.90;99.90;;;;;;4989886;28;20223;-91
2021/07/28 04:27:00;;;;;;;19.83;11.00;;;17.00;99.90;;;;;;4989618;28;20262;-90
2021/07/28 04:29:26;;;;;;;18.30;9.50;;;17.00;99.90;;;;;;4973066;28;20224;-91
2021/07/28 04:31:52;;;;;;;19.07;10.60;;;17.00;99.90;;;;;;4973457;28;20191;-91
2021/07/28 04:34:17;;;;;;;17.60;8.47;;;17.00;99.90;;;;;;4974963;28;20188;-90
2021/07/28 04:36:43;;;;;;;20.67;9.23;;;17.10;99.90;;;;;;4965564;28;20586;-91
2021/07/28 04:39:09;;;;;;;18.47;10.13;;;17.00;99.90;;;;;;4965186;28;20230;-90
2021/07/28 04:41:35;;;;;;;22.60;10.17;;;17.00;99.90;;;;;;4986942;28;20218;-90
2021/07/28 04:44:01;;;;;;;16.10;9.00;;;17.00;99.90;;;;;;4988153;28;20216;-88
2021/07/28 04:46:27;;;;;;;20.60;10.37;;;17.00;99.90;;;;;;4973044;28;20227;-89
2021/07/28 04:48:54;;;;;;;23.53;11.20;;;17.10;99.90;;;;;;4972854;28;20243;-90
2021/07/28 04:51:20;;;;;;;22.53;11.13;;;17.30;99.90;;;;;;4972676;28;20208;-88
2021/07/28 04:53:45;;;;;;;17.50;10.90;;;17.50;99.90;;;;;;4989096;28;20228;-89
2021/07/28 04:56:11;;;;;;;19.73;10.03;;;17.50;99.90;;;;;;4972235;28;20476;-89
2021/07/28 04:58:38;;;;;;;21.60;10.53;;;17.50;99.90;;;;;;4973022;28;20199;-88
2021/07/28 05:01:03;;;;;;;19.37;10.00;;;17.60;99.90;;;;;;4972880;28;20196;-89
2021/07/28 05:03:29;;;;;;;19.93;10.57;;;17.70;99.90;;;;;;4972671;28;20536;-89
2021/07/28 05:05:55;;;;;;;18.97;8.80;;;17.70;99.90;;;;;;4983078;28;20211;-89
2021/07/28 05:08:20;;;;;;;18.17;9.03;;;17.90;99.90;;;;;;4975523;28;20833;-89
2021/07/28 05:10:49;;;;;;;17.37;8.17;;;18.00;99.90;;;;;;4976074;28;20202;-89
2021/07/28 05:13:15;;;;;;;18.50;10.13;;;18.10;99.90;;;;;;4991974;28;20640;-88
2021/07/28 05:15:41;;;;;;;14.73;8.67;;;18.40;99.90;;;;;;5005750;28;20207;-89
2021/07/28 05:18:07;;;;;;;22.27;9.77;;;18.50;99.90;;;;;;4975970;28;20216;-90
2021/07/28 05:20:33;;;;;;;18.50;8.67;;;18.90;99.90;;;;;;4976032;28;20214;-92
2021/07/28 05:22:58;;;;;;;16.07;9.70;;;18.80;99.90;;;;;;4975850;28;20597;-89
2021/07/28 05:25:24;;;;;;;17.87;8.77;;;18.70;99.90;;;;;;4990516;28;20218;-90
2021/07/28 05:27:50;;;;;;;17.77;9.60;;;18.70;99.90;;;;;;4991723;28;20227;-89
2021/07/28 05:30:16;;;;;;;13.50;8.47;;;18.70;99.90;;;;;;4990902;28;20219;-91
2021/07/28 05:32:42;;;;;;;18.70;10.73;;;18.80;99.90;;;;;;4991412;28;20270;-87
2021/07/28 05:35:08;;;;;;;19.90;9.23;;;18.60;99.90;;;;;;4990873;28;20215;-86
2021/07/28 05:37:34;;;;;;;19.10;9.03;;;18.50;99.90;;;;;;4989304;28;20183;-89
2021/07/28 05:40:00;;;;;;;16.97;9.13;;;18.20;99.90;;;;;;4975038;28;20191;-85
2021/07/28 05:42:25;;;;;;;17.03;9.80;;;18.10;99.90;;;;;;4991373;28;20254;-88
2021/07/28 05:44:51;;;;;;;16.27;9.67;;;18.10;99.90;;;;;;4975008;28;20226;-89
2021/07/28 05:47:17;;;;;;;18.30;9.63;;;18.00;99.90;;;;;;4991441;28;20310;-91
2021/07/28 05:49:42;;;;;;;21.37;10.30;;;18.10;99.90;;;;;;4975599;28;20727;-89
2021/07/28 05:52:08;;;;;;;16.73;10.80;;;18.20;99.90;;;;;;4991864;28;20175;-90
2021/07/28 05:54:34;;;;;;;22.53;9.97;;;18.20;99.90;;;;;;4990591;28;20249;-90
2021/07/28 05:57:00;;;;;;;24.27;11.43;;;18.20;99.90;;;;;;4974942;28;20298;-89
2021/07/28 05:59:27;;;;;;;20.37;10.23;;;18.30;99.90;;;;;;4989736;28;20219;-89
2021/07/28 06:01:52;;;;;;;25.87;12.63;;;18.30;99.90;;;;;;4990417;28;20198;-90
2021/07/28 06:04:18;;;;;;;21.37;10.77;;;18.30;99.90;;;;;;4991459;28;20279;-90
2021/07/28 06:06:44;;;;;;;18.00;9.57;;;18.20;99.90;;;;;;5005177;28;20212;-90
2021/07/28 06:09:09;;;;;;;25.57;11.07;;;18.20;99.90;;;;;;4974539;28;20243;-89
2021/07/28 06:11:35;;;;;;;14.30;6.93;;;18.20;99.90;;;;;;4988516;28;20309;-91
2021/07/28 06:14:01;;;;;;;10.10;5.63;;;18.10;99.90;;;;;;4990001;28;20711;-87
2021/07/28 06:16:27;;;;;;;11.93;6.50;;;17.90;99.90;;;;;;5007605;28;20199;-90
2021/07/28 06:18:54;;;;;;;15.00;8.03;;;17.90;99.90;;;;;;4975346;28;20237;-90
2021/07/28 06:21:20;;;;;;;15.13;9.10;;;18.00;99.90;;;;;;4990387;28;20224;-90
2021/07/28 06:23:46;;;;;;;17.57;11.30;;;18.10;99.90;;;;;;4991468;28;20213;-89
2021/07/28 06:26:11;;;;;;;18.10;10.60;;;18.10;99.90;;;;;;5021052;28;20219;-90
2021/07/28 06:28:37;;;;;;;16.37;10.17;;;18.10;99.90;;;;;;4989190;28;20211;-91
2021/07/28 06:31:03;;;;;;;14.67;8.87;;;18.20;99.90;;;;;;4990358;28;20199;-90
2021/07/28 06:33:29;;;;;;;21.13;11.43;;;18.20;99.90;;;;;;4990200;28;20261;-91
2021/07/28 06:35:54;;;;;;;21.87;11.00;;;18.30;99.90;;;;;;4989894;28;20219;-90
2021/07/28 06:38:20;;;;;;;19.03;11.20;;;18.40;99.90;;;;;;5022246;28;20307;-90
2021/07/28 06:40:46;;;;;;;19.20;10.50;;;18.70;99.90;;;;;;4990024;28;20278;-91
2021/07/28 06:43:13;;;;;;;19.40;10.17;;;18.80;99.90;;;;;;5006162;28;20253;-90
2021/07/28 06:45:39;;;;;;;18.33;9.83;;;18.80;99.90;;;;;;5006509;28;20714;-91
2021/07/28 06:48:05;;;;;;;22.47;11.57;;;18.90;99.90;;;;;;4973620;28;20223;-90
2021/07/28 06:50:31;;;;;;;19.47;10.60;;;18.90;99.90;;;;;;5005947;28;20207;-92
2021/07/28 06:52:57;;;;;;;17.77;9.87;;;19.10;99.90;;;;;;4989177;28;20285;-90
2021/07/28 06:55:22;;;;;;;21.23;13.07;;;19.40;99.90;;;;;;4990466;28;20231;-91
2021/07/28 06:57:48;;;;;;;21.40;11.50;;;20.10;99.90;;;;;;4973449;28;20215;-91
2021/07/28 07:00:14;;;;;;;20.87;10.00;;;20.60;99.90;;;;;;4990054;28;20648;-91
2021/07/28 07:02:40;;;;;;;13.47;8.93;;;20.70;99.90;;;;;;4989883;28;20242;-91
2021/07/28 07:05:08;;;;;;;16.33;9.20;;;20.00;99.90;;;;;;4973801;28;20247;-91
2021/07/28 07:07:34;;;;;;;17.40;10.70;;;19.80;99.90;;;;;;4988736;28;20298;-91
2021/07/28 07:10:01;;;;;;;19.40;9.63;;;19.60;99.90;;;;;;4990371;28;20287;-90
2021/07/28 07:12:26;;;;;;;18.60;9.80;;;19.60;99.90;;;;;;4989583;28;20798;-90
2021/07/28 07:14:53;;;;;;;17.57;9.93;;;19.80;99.90;;;;;;4989218;28;20231;-91
2021/07/28 07:17:18;;;;;;;15.50;9.57;;;20.10;99.90;;;;;;4989616;28;20219;-91
2021/07/28 07:19:44;;;;;;;17.23;10.03;;;20.40;99.90;;;;;;4974253;28;20538;-90
2021/07/28 07:22:10;;;;;;;17.30;9.77;;;20.40;99.90;;;;;;4990550;28;20643;-90
2021/07/28 07:24:36;;;;;;;16.10;9.73;;;20.40;99.90;;;;;;4989762;28;20253;-90
2021/07/28 07:27:02;;;;;;;16.10;9.67;;;20.90;99.90;;;;;;4989214;28;20223;-90
2021/07/28 07:29:28;;;;;;;18.63;10.53;;;21.00;99.90;;;;;;4973871;28;20219;-90
2021/07/28 07:31:54;;;;;;;16.27;9.87;;;20.60;99.90;;;;;;4974094;28;20238;-90
2021/07/28 07:34:20;;;;;;;14.50;8.10;;;21.20;99.90;;;;;;5005412;28;20196;-91
2021/07/28 07:36:46;;;;;;;13.37;8.73;;;20.90;99.90;;;;;;4989458;28;20215;-90
2021/07/28 07:39:12;;;;;;;17.70;10.13;;;20.40;99.90;;;;;;5005217;28;20211;-90
2021/07/28 07:41:39;;;;;;;19.47;10.27;;;20.70;99.90;;;;;;4988936;28;21044;-91
2021/07/28 07:44:05;;;;;;;15.73;9.33;;;22.30;99.90;;;;;;5006817;28;20965;-92
2021/07/28 07:46:31;;;;;;;15.00;8.33;;;24.10;99.90;;;;;;5009075;28;20602;-93
2021/07/28 07:48:58;;;;;;;12.43;8.23;;;24.40;99.90;;;;;;4993613;28;20718;-93
2021/07/28 07:51:26;;;;;;;12.67;9.07;;;24.00;99.90;;;;;;4975873;28;20222;-92
2021/07/28 07:53:52;;;;;;;13.02;7.93;;;24.10;99.90;;;;;;4993504;28;20646;-93
2021/07/28 07:56:19;;;;;;;15.98;8.35;;;24.50;99.90;;;;;;4979898;28;20301;-94
2021/07/28 07:58:45;;;;;;;12.38;7.68;;;24.00;99.90;;;;;;4997308;28;20187;-92
2021/07/28 08:01:12;;;;;;;11.02;7.38;;;23.80;99.90;;;;;;5009281;28;20205;-92
2021/07/28 08:03:40;;;;;;;9.82;6.95;;;23.80;99.90;;;;;;4992558;28;20257;-91
2021/07/28 08:06:07;;;;;;;14.60;9.00;;;23.30;99.90;;;;;;4992167;28;20318;-91
2021/07/28 08:08:33;;;;;;;11.60;7.15;;;23.10;99.90;;;;;;4992782;28;20254;-92
2021/07/28 08:11:00;;;;;;;13.93;8.18;;;23.60;99.90;;;;;;4992633;28;20223;-92
2021/07/28 08:13:27;;;;;;;8.55;5.70;;;24.50;99.90;;;;;;4976804;28;20671;-93
2021/07/28 08:15:53;;;;;;;11.98;7.32;;;24.90;99.90;;;;;;4993091;28;20222;-92
2021/07/28 08:18:23;;;;;;;11.38;6.93;;;25.10;99.90;;;;;;4986460;28;20311;-93
2021/07/28 08:20:49;;;;;;;8.88;6.43;;;26.50;99.90;;;;;;4986303;28;20212;-94
2021/07/28 08:23:15;;;;;;;7.25;5.55;;;25.70;99.90;;;;;;4995092;28;20269;-94
2021/07/28 08:25:41;;;;;;;10.52;6.43;;;24.80;99.90;;;;;;4993643;28;20183;-92
2021/07/28 08:28:12;;;;;;;8.05;5.75;;;24.90;99.90;;;;;;4975642;28;20219;-94
2021/07/28 08:30:40;;;;;;;7.30;4.95;;;26.10;99.90;;;;;;4995496;28;20302;-93
2021/07/28 08:33:05;;;;;;;5.43;4.53;;;26.80;99.90;;;;;;4966248;28;20358;-95
2021/07/28 08:35:31;;;;;;;7.25;5.28;;;26.10;99.90;;;;;;4976189;28;20318;-92
2021/07/28 08:37:57;;;;;;;7.00;5.10;;;25.10;99.90;;;;;;4967631;28;20212;-93
2021/07/28 08:40:24;;;;;;;5.82;4.70;;;25.10;99.90;;;;;;4975930;28;20184;-92
2021/07/28 08:42:51;;;;;;;6.90;5.05;;;24.90;99.90;;;;;;4985181;28;20947;-93
2021/07/28 08:45:17;;;;;;;7.60;4.20;;;24.00;99.90;;;;;;4990800;28;20226;-91
2021/07/28 08:47:44;;;;;;;6.38;4.00;;;23.30;99.90;;;;;;4969221;28;21059;-94
2021/07/28 08:50:11;;;;;;;9.70;5.30;;;23.30;99.90;;;;;;4991487;28;20227;-91
2021/07/28 08:52:39;;;;;;;5.30;3.88;;;24.90;99.90;;;;;;4981351;28;21000;-92
2021/07/28 08:55:06;;;;;;;5.43;4.30;;;26.00;99.90;;;;;;4997923;28;20232;-93
2021/07/28 08:57:33;;;;;;;5.05;4.25;;;26.20;99.90;;;;;;4989683;28;20223;-92
2021/07/28 08:59:59;;;;;;;6.32;4.30;;;25.40;99.90;;;;;;4963079;28;20220;-92
2021/07/28 09:02:26;;;;;;;4.03;3.63;;;23.70;99.90;;;;;;4988082;28;20294;-92
2021/07/28 09:04:53;;;;;;;5.85;4.57;;;23.30;99.90;;;;;;4965265;28;20206;-90
2021/07/28 09:07:21;;;;;;;4.03;3.33;;;23.90;99.90;;;;;;4988720;28;20303;-92
2021/07/28 09:09:54;;;;;;;5.85;4.60;;;23.90;99.90;;;;;;4988169;28;20275;-92
2021/07/28 09:12:30;;;;;;;5.40;4.90;;;23.50;99.90;;;;;;4990288;28;20220;-92
2021/07/28 09:15:01;;;;;;;8.32;5.78;;;23.40;99.90;;;;;;4988452;28;20699;-91
2021/07/28 09:17:27;;;;;;;8.68;5.45;;;23.10;99.90;;;;;;4972158;28;20587;-92
2021/07/28 09:19:54;;;;;;;10.38;6.38;;;23.40;99.90;;;;;;4988151;28;20207;-92
2021/07/28 09:22:21;;;;;;;6.43;4.60;;;23.40;99.90;;;;;;4989119;28;20200;-91
2021/07/28 09:25:25;;;;;;;7.10;5.32;;;23.60;99.90;;;;;;4987606;28;20278;-91
2021/07/28 09:27:52;;;;;;;5.22;4.65;;;24.20;99.90;;;;;;5004143;28;20227;-93
2021/07/28 09:30:24;;;;;;;5.75;4.80;;;24.20;99.90;;;;;;4987482;28;20274;-92
2021/07/28 09:33:02;;;;;;;7.50;4.78;;;23.20;99.90;;;;;;4986976;28;20219;-92
2021/07/28 09:35:48;;;;;;;8.52;4.60;;;22.70;99.90;;;;;;4981396;28;20220;-90
2021/07/28 09:38:32;;;;;;;6.80;4.77;;;22.00;99.90;;;;;;4982903;28;20212;-91
2021/07/28 09:41:18;;;;;;;6.57;4.93;;;21.40;99.90;;;;;;5000898;28;20222;-93
2021/07/28 09:43:53;;;;;;;7.45;4.97;;;21.40;99.90;;;;;;4981988;28;20195;-92
2021/07/28 09:46:39;;;;;;;7.97;4.87;;;22.60;99.90;;;;;;4965362;28;20204;-93
2021/07/28 09:49:07;;;;;;;7.20;5.05;;;24.00;99.90;;;;;;4988104;28;20285;-92
2021/07/28 09:51:41;;;;;;;7.38;4.55;;;24.10;99.90;;;;;;4988801;28;20220;-92
2021/07/28 09:54:13;;;;;;;5.75;4.88;;;22.90;99.90;;;;;;4963822;28;20294;-93
2021/07/28 09:56:53;;;;;;;7.47;4.13;;;22.50;99.90;;;;;;4987280;28;20231;-92
2021/07/28 09:59:20;;;;;;;6.50;4.43;;;21.70;99.90;;;;;;5003452;28;20239;-92
2021/07/28 10:01:46;;;;;;;5.60;4.38;;;21.50;99.90;;;;;;4963521;28;20188;-93
2021/07/28 10:04:14;;;;;;;6.27;4.17;;;21.30;99.90;;;;;;4987567;28;20640;-93
2021/07/28 10:06:43;;;;;;;5.77;4.20;;;21.30;99.90;;;;;;4987837;28;20282;-92
2021/07/28 10:09:16;;;;;;;6.87;5.10;;;21.40;99.90;;;;;;4979893;28;20564;-91
2021/07/28 10:11:52;;;;;;;10.90;4.67;;;22.50;99.90;;;;;;4988107;28;20942;-91
2021/07/28 10:14:19;;;;;;;5.80;4.43;;;22.50;99.90;;;;;;4988525;28;20571;-91
2021/07/28 10:16:45;;;;;;;6.50;5.23;;;22.00;99.90;;;;;;4964987;28;20555;-92
2021/07/28 10:19:11;;;;;;;8.53;5.07;;;22.40;99.90;;;;;;4987503;28;20236;-92
2021/07/28 10:21:38;;;;;;;11.07;6.30;;;22.50;99.90;;;;;;4987490;28;20238;-91
2021/07/28 10:24:05;;;;;;;5.22;4.18;;;23.20;99.90;;;;;;4986902;28;20212;-92
2021/07/28 10:26:38;;;;;;;7.77;4.43;;;23.10;99.90;;;;;;4963409;28;20212;-93
2021/07/28 10:29:04;;;;;;;7.63;5.00;;;22.70;99.90;;;;;;4980222;28;20263;-93
2021/07/28 10:31:43;;;;;;;7.33;4.97;;;22.00;99.90;;;;;;4988282;28;20192;-92
2021/07/28 10:34:22;;;;;;;12.03;5.07;;;21.80;99.90;;;;;;5024328;28;20283;-91
2021/07/28 10:36:48;;;;;;;6.87;5.10;;;21.10;99.90;;;;;;5010174;28;20206;-94
2021/07/28 10:39:44;;;;;;;10.63;5.30;;;20.80;99.90;;;;;;4995886;28;21088;-93
2021/07/28 10:42:14;;;;;;;12.23;5.33;;;20.50;99.90;;;;;;4999858;28;20215;-93
2021/07/28 10:45:02;;;;;;;14.40;5.40;;;20.40;99.90;;;;;;5005662;28;20306;-92
2021/07/28 10:47:51;;;;;;;7.57;4.50;;;20.50;99.90;;;;;;5005855;28;20306;-92
2021/07/28 10:50:25;;;;;;;7.77;5.10;;;20.80;99.90;;;;;;4990043;28;20219;-93
2021/07/28 10:52:58;;;;;;;8.40;5.80;;;20.80;99.90;;;;;;5005524;28;20210;-92
2021/07/28 10:55:29;;;;;;;11.27;5.50;;;20.90;99.90;;;;;;4992158;28;20231;-90
2021/07/28 10:58:08;;;;;;;8.70;5.30;;;20.80;99.90;;;;;;5009412;28;20223;-92
2021/07/28 11:00:42;;;;;;;8.77;4.80;;;20.80;99.90;;;;;;5005847;28;20618;-92
2021/07/28 11:03:08;;;;;;;8.53;5.27;;;20.80;99.90;;;;;;5006680;28;20656;-91
2021/07/28 11:05:35;;;;;;;8.80;5.33;;;20.90;99.90;;;;;;5009934;28;20227;-93
2021/07/28 11:08:20;;;;;;;7.47;5.27;;;20.80;99.90;;;;;;5006573;28;20230;-92
2021/07/28 11:10:45;;;;;;;8.47;5.80;;;20.70;99.90;;;;;;5007399;28;20660;-93
2021/07/28 11:13:31;;;;;;;8.57;6.10;;;21.00;99.90;;;;;;5010918;28;20205;-94
2021/07/28 11:16:01;;;;;;;8.03;5.47;;;21.60;99.90;;;;;;4992549;28;20215;-94
2021/07/28 11:18:37;;;;;;;5.23;4.07;;;21.60;99.90;;;;;;5008763;28;20301;-93
2021/07/28 11:21:20;;;;;;;3.30;2.77;;;20.60;99.90;;;;;;5013845;28;20233;-93
2021/07/28 11:23:48;;;;;;;3.93;2.97;;;19.60;99.90;;;;;;5007843;28;20650;-92
2021/07/28 11:26:34;;;;;;;7.43;3.63;;;19.30;99.90;;;;;;5011599;28;20250;-93
2021/07/28 11:29:09;;;;;;;5.83;3.93;;;19.30;99.90;;;;;;5012397;28;20245;-93
2021/07/28 11:31:39;;;;;;;5.03;3.03;;;19.60;99.90;;;;;;5008601;28;20187;-92
2021/07/28 11:34:10;;;;;;;3.73;2.10;;;19.40;99.90;;;;;;5007295;28;20187;-92
2021/07/28 11:36:38;;;;;;;4.47;3.60;;;19.50;99.90;;;;;;5005825;28;20223;-92
2021/07/28 11:39:09;;;;;;;6.43;2.97;;;19.80;99.90;;;;;;4993906;28;20273;-91
2021/07/28 11:41:34;;;;;;;4.50;3.63;;;19.80;99.90;;;;;;4979320;28;20290;-92
2021/07/28 11:44:00;;;;;;;8.10;4.57;;;20.10;99.90;;;;;;4980374;28;20297;-92
2021/07/28 11:46:26;;;;;;;5.60;4.03;;;20.60;99.90;;;;;;5013858;28;20207;-91
2021/07/28 11:49:00;;;;;;;5.57;3.73;;;20.60;99.90;;;;;;4996949;28;20230;-91
2021/07/28 11:51:35;;;;;;;7.47;3.67;;;20.30;99.90;;;;;;4988692;28;20680;-93
2021/07/28 11:54:20;;;;;;;5.70;4.03;;;19.90;99.90;;;;;;5012563;28;20688;-93
2021/07/28 11:56:53;;;;;;;5.90;4.13;;;19.80;99.90;;;;;;4997797;28;20231;-92
2021/07/28 11:59:28;;;;;;;6.73;4.20;;;19.80;99.90;;;;;;4987748;28;20683;-92
2021/07/28 12:01:57;;;;;;;8.40;4.00;;;20.10;99.90;;;;;;5014972;28;20205;-94
2021/07/28 12:04:25;;;;;;;5.43;4.20;;;20.20;99.90;;;;;;4998067;28;20188;-95
2021/07/28 12:06:52;;;;;;;4.20;3.43;;;20.00;99.90;;;;;;5011659;28;20207;-96
2021/07/28 12:09:23;;;;;;;5.23;3.10;;;19.90;99.90;;;;;;4995977;28;20235;-92
2021/07/28 12:11:55;;;;;;;5.70;4.13;;;20.00;99.90;;;;;;4994948;28;20285;-94
2021/07/28 12:14:40;;;;;;;9.07;4.50;;;20.10;99.90;;;;;;5010833;28;20318;-93
2021/07/28 12:17:21;;;;;;;7.10;4.87;;;20.10;99.90;;;;;;5010787;28;20231;-94
2021/07/28 12:20:00;;;;;;;6.80;4.10;;;20.40;99.90;;;;;;4993780;28;20186;-93
2021/07/28 12:22:33;;;;;;;7.43;4.30;;;20.80;99.90;;;;;;5008346;28;20191;-91
2021/07/28 12:25:15;;;;;;;10.03;4.77;;;20.70;99.90;;;;;;5010231;28;20223;-92
2021/07/28 12:27:57;;;;;;;5.93;4.00;;;20.80;99.90;;;;;;5008530;28;20223;-93
2021/07/28 12:30:28;;;;;;;5.57;4.97;;;21.10;99.90;;;;;;5008692;28;20692;-94
2021/07/28 12:33:06;;;;;;;8.30;4.50;;;21.00;99.90;;;;;;5011271;28;20223;-91
2021/07/28 12:35:56;;;;;;;6.57;4.70;;;20.90;99.90;;;;;;5008720;28;20215;-91
2021/07/28 12:38:26;;;;;;;7.37;4.73;;;20.70;99.90;;;;;;4994268;28;20219;-94
2021/07/28 12:40:56;;;;;;;5.63;3.67;;;20.70;99.90;;;;;;5008971;28;20267;-92
2021/07/28 12:43:25;;;;;;;7.07;4.33;;;21.00;99.90;;;;;;5009142;28;20663;-92
2021/07/28 12:45:56;;;;;;;4.60;3.83;;;21.30;99.90;;;;;;5009181;28;20294;-91
2021/07/28 12:48:22;;;;;;;7.07;3.33;;;21.20;99.90;;;;;;5009184;28;20265;-91